createdAt,value
2022-08-07T00:00:40.021Z,92560.56
2022-08-07T00:03:47.346Z,92565.72
2022-08-07T00:06:52.258Z,92565.56
2022-08-07T00:10:18.803Z,92560.22
2022-08-07T00:13:25.580Z,92557.09
2022-08-07T00:16:30.769Z,92565.66
2022-08-07T00:20:01.088Z,92562.22
2022-08-07T00:22:59.256Z,92561.16
2022-08-07T00:26:18.638Z,92561.72
2022-08-07T00:29:32.090Z,92559.03
2022-08-07T00:32:36.216Z,92563.97
2022-08-07T00:35:40.129Z,92562.19
2022-08-07T00:38:44.808Z,92562.19
2022-08-07T00:42:02.121Z,92575.97
2022-08-07T00:45:16.341Z,92564.56
2022-08-07T00:48:25.123Z,92571.75
2022-08-07T00:51:58.209Z,92556.56
2022-08-07T00:54:59.608Z,92564.13
2022-08-07T00:58:09.345Z,92561.66
2022-08-07T01:01:13.480Z,92561.59
2022-08-07T01:04:24.614Z,92568.63
2022-08-07T01:07:31.482Z,92562.50
2022-08-07T01:10:36.977Z,92564.47
2022-08-07T01:13:46.733Z,92553.81
2022-08-07T01:17:04.262Z,92560.22
2022-08-07T01:20:16.976Z,92551.19
2022-08-07T01:23:25.484Z,92551.53
2022-08-07T01:26:43.491Z,92566.38
2022-08-07T01:29:56.517Z,92560.22
2022-08-07T01:33:03.560Z,92557.53
2022-08-07T01:36:10.695Z,92551.66
2022-08-07T01:39:20.775Z,92566.66
2022-08-07T01:42:39.848Z,92564.09
2022-08-07T01:46:00.769Z,92573.53
2022-08-07T01:49:05.053Z,92567.44
2022-08-07T01:52:12.471Z,92570.91
2022-08-07T01:55:28.083Z,92566.09
2022-08-07T01:58:37.627Z,92572.97
2022-08-07T02:02:02.432Z,92575.78
2022-08-07T02:05:42.947Z,92590.41
2022-08-07T02:08:46.798Z,92586.88
2022-08-07T02:12:18.008Z,92594.53
2022-08-07T02:15:28.214Z,92581.03
2022-08-07T02:18:34.477Z,92569.75
2022-08-07T02:21:56.759Z,92558.63
2022-08-07T02:25:07.030Z,92565.16
2022-08-07T02:28:24.732Z,92563.06
2022-08-07T02:31:32.961Z,92567.09
2022-08-07T02:34:38.983Z,92573.66
2022-08-07T02:37:54.921Z,92574.22
2022-08-07T02:41:03.957Z,92576.75
2022-08-07T02:44:13.596Z,92589.38
2022-08-07T02:47:23.499Z,92577.38
2022-08-07T02:50:37.389Z,92583.50
2022-08-07T02:53:42.858Z,92575.78
2022-08-07T02:56:50.436Z,92573.03
2022-08-07T03:00:01.367Z,92580.28
2022-08-07T03:03:13.834Z,92563.19
2022-08-07T03:06:33.173Z,92565.91
2022-08-07T03:09:44.757Z,92554.41
2022-08-07T03:12:52.005Z,92557.16
2022-08-07T03:15:58.300Z,92560.72
2022-08-07T03:19:07.235Z,92564.19
2022-08-07T03:22:18.765Z,92550.41
2022-08-07T03:25:40.076Z,92558.94
2022-08-07T03:28:47.305Z,92577.09
2022-08-07T03:31:53.192Z,92548.88
2022-08-07T03:35:17.650Z,92546.38
2022-08-07T03:38:29.841Z,92562.75
2022-08-07T03:41:47.445Z,92565.31
2022-08-07T03:44:57.965Z,92568.16
2022-08-07T03:48:03.891Z,92576.81
2022-08-07T03:51:14.404Z,92573.81
2022-08-07T03:54:35.590Z,92560.78
2022-08-07T03:58:32.942Z,92568.56
2022-08-07T04:01:15.958Z,92593.63
2022-08-07T04:04:23.245Z,92563.47
2022-08-07T04:07:36.225Z,92548.47
2022-08-07T04:10:53.879Z,92541.69
2022-08-07T04:14:09.522Z,92549.75
2022-08-07T04:18:30.875Z,92539.50
2022-08-07T04:20:54.794Z,92559.31
2022-08-07T04:24:07.259Z,92543.19
2022-08-07T04:27:20.488Z,92545.03
2022-08-07T04:30:43.780Z,92575.84
2022-08-07T04:33:54.979Z,92558.16
2022-08-07T04:37:02.017Z,92566.63
2022-08-07T04:40:09.332Z,92570.75
2022-08-07T04:43:19.532Z,92571.22
2022-08-07T04:47:04.640Z,92527.81
2022-08-07T04:50:39.042Z,92550.22
2022-08-07T04:54:50.401Z,92544.50
2022-08-07T04:58:11.160Z,92525.50
2022-08-07T05:01:32.121Z,92549.81
2022-08-07T05:05:11.410Z,92534.66
2022-08-07T05:08:59.673Z,92539.06
2022-08-07T05:11:58.192Z,92551.16
2022-08-07T05:15:23.544Z,92539.41
2022-08-07T05:18:36.765Z,92547.25
2022-08-07T05:21:59.544Z,92509.56
2022-08-07T05:25:36.716Z,92531.22
2022-08-07T05:28:36.395Z,92537.00
2022-08-07T05:31:52.799Z,92525.00
2022-08-07T05:35:04.117Z,92517.38
2022-08-07T05:38:11.472Z,92493.16
2022-08-07T05:41:16.824Z,92509.66
2022-08-07T05:44:29.682Z,92493.69
2022-08-07T05:47:59.993Z,92505.53
2022-08-07T05:51:03.540Z,92498.59
2022-08-07T05:54:30.223Z,92488.91
2022-08-07T05:57:37.760Z,92515.56
2022-08-07T06:00:46.316Z,92522.19
2022-08-07T06:04:01.001Z,92521.94
2022-08-07T06:07:23.031Z,92490.75
2022-08-07T06:10:39.137Z,92489.09
2022-08-07T06:14:12.925Z,92490.09
2022-08-07T06:17:13.150Z,92478.69
2022-08-07T06:20:31.887Z,92486.75
2022-08-07T06:24:37.079Z,92491.22
2022-08-07T06:27:08.884Z,92499.53
2022-08-07T06:30:23.999Z,92481.06
2022-08-07T06:33:39.230Z,92499.13
2022-08-07T06:36:42.534Z,92505.84
2022-08-07T06:40:16.014Z,92496.19
2022-08-07T06:43:21.525Z,92533.81
2022-08-07T06:47:10.611Z,92508.91
2022-08-07T06:50:19.096Z,92491.81
2022-08-07T06:55:27.693Z,92497.44
2022-08-07T06:56:52.594Z,92512.09
2022-08-07T07:00:11.856Z,92523.38
2022-08-07T07:03:39.721Z,92543.28
2022-08-07T07:07:00.209Z,92514.63
2022-08-07T07:10:04.930Z,92507.69
2022-08-07T07:13:43.653Z,92509.72
2022-08-07T07:16:50.760Z,92523.00
2022-08-07T07:20:00.727Z,92538.22
2022-08-07T07:24:08.527Z,92512.78
2022-08-07T07:26:37.799Z,92519.06
2022-08-07T07:30:09.224Z,92501.25
2022-08-07T07:33:16.235Z,92503.78
2022-08-07T07:36:21.286Z,92485.69
2022-08-07T07:39:35.809Z,92527.84
2022-08-07T07:42:55.646Z,92508.66
2022-08-07T07:46:40.571Z,92495.41
2022-08-07T07:50:34.295Z,92490.25
2022-08-07T07:52:53.115Z,92488.19
2022-08-07T07:56:00.831Z,92485.03
2022-08-07T07:59:06.760Z,92500.31
2022-08-07T08:02:33.823Z,92498.78
2022-08-07T08:05:43.203Z,92511.03
2022-08-07T08:09:01.782Z,92497.13
2022-08-07T08:12:06.835Z,92507.44
2022-08-07T08:15:11.303Z,92503.19
2022-08-07T08:18:18.622Z,92508.69
2022-08-07T08:21:55.356Z,92523.94
2022-08-07T08:25:43.077Z,92534.97
2022-08-07T08:28:52.611Z,92506.94
2022-08-07T08:32:17.113Z,92519.25
2022-08-07T08:35:28.713Z,92512.53
2022-08-07T08:38:45.737Z,92517.88
2022-08-07T08:41:58.519Z,92522.47
2022-08-07T08:45:21.612Z,92515.88
2022-08-07T08:48:38.685Z,92523.28
2022-08-07T08:52:14.032Z,92518.59
2022-08-07T08:55:55.398Z,92551.31
2022-08-07T08:59:13.962Z,92523.63
2022-08-07T09:02:41.915Z,92529.03
2022-08-07T09:06:11.303Z,92547.31
2022-08-07T09:09:57.005Z,92539.81
2022-08-07T09:13:36.979Z,92543.38
2022-08-07T09:16:48.924Z,92586.28
2022-08-07T09:20:35.607Z,92569.66
2022-08-07T09:24:34.136Z,92519.59
2022-08-07T09:27:27.499Z,92510.13
2022-08-07T09:30:50.575Z,92496.09
2022-08-07T09:34:19.054Z,92511.84
2022-08-07T09:37:33.530Z,92517.09
2022-08-07T09:41:25.087Z,92513.09
2022-08-07T09:47:49.622Z,92496.56
2022-08-07T09:50:01.622Z,92501.47
2022-08-07T09:53:00.043Z,92510.94
2022-08-07T09:56:14.620Z,92487.81
2022-08-07T10:00:00.362Z,92511.50
2022-08-07T10:04:03.830Z,92490.91
2022-08-07T10:07:24.190Z,92512.97
2022-08-07T10:11:16.895Z,92521.63
2022-08-07T10:14:41.627Z,92511.69
2022-08-07T10:18:02.784Z,92538.88
2022-08-07T10:21:19.891Z,92508.00
2022-08-07T10:24:55.620Z,92515.38
2022-08-07T10:28:29.434Z,92532.06
2022-08-07T10:32:16.487Z,92529.00
2022-08-07T10:35:53.562Z,92500.19
2022-08-07T10:39:22.260Z,92507.47
2022-08-07T10:42:38.089Z,92516.22
2022-08-07T10:45:57.427Z,92518.47
2022-08-07T10:49:49.250Z,92548.63
2022-08-07T10:53:26.705Z,92506.66
2022-08-07T10:57:01.131Z,92528.09
2022-08-07T11:00:36.499Z,92532.34
2022-08-07T11:04:16.642Z,92522.91
2022-08-07T11:07:58.605Z,92549.19
2022-08-07T11:11:22.866Z,92552.03
2022-08-07T11:14:45.088Z,92541.59
2022-08-07T11:18:17.737Z,92542.31
2022-08-07T11:21:40.848Z,92544.16
2022-08-07T11:25:14.794Z,92530.97
2022-08-07T11:28:31.212Z,92524.56
2022-08-07T11:32:07.240Z,92545.75
2022-08-07T11:35:25.159Z,92548.41
2022-08-07T11:39:06.804Z,92536.22
2022-08-07T11:42:49.203Z,92540.59
2022-08-07T11:46:11.941Z,92525.31
2022-08-07T11:50:18.775Z,92560.97
2022-08-07T11:53:27.895Z,92544.25
2022-08-07T11:57:00.818Z,92545.31
2022-08-07T12:00:19.700Z,92550.22
2022-08-07T12:03:49.882Z,92542.66
2022-08-07T12:07:18.998Z,92553.13
2022-08-07T12:10:45.938Z,92563.47
2022-08-07T12:14:09.732Z,92555.97
2022-08-07T12:17:30.320Z,92560.81
2022-08-07T12:20:49.108Z,92549.94
2022-08-07T12:24:06.807Z,92561.19
2022-08-07T12:27:27.943Z,92561.00
2022-08-07T12:30:40.404Z,92578.63
2022-08-07T12:33:56.469Z,92580.84
2022-08-07T12:37:08.452Z,92585.00
2022-08-07T12:40:46.408Z,92581.53
2022-08-07T12:44:03.839Z,92564.81
2022-08-07T12:47:55.304Z,92562.13
2022-08-07T12:51:18.163Z,92566.69
2022-08-07T12:54:38.836Z,92573.41
2022-08-07T12:58:00.426Z,92568.78
2022-08-07T13:01:29.346Z,92560.19
2022-08-07T13:05:06.429Z,92576.22
2022-08-07T13:08:46.887Z,92578.38
2022-08-07T13:12:18.412Z,92574.47
2022-08-07T13:15:54.049Z,92585.97
2022-08-07T13:19:21.902Z,92584.31
2022-08-07T13:23:59.749Z,92585.19
2022-08-07T13:26:49.707Z,92578.88
2022-08-07T13:30:03.731Z,92592.72
2022-08-07T13:34:30.446Z,92589.88
2022-08-07T13:37:11.018Z,92605.13
2022-08-07T13:40:36.074Z,92601.41
2022-08-07T13:43:52.730Z,92615.09
2022-08-07T13:47:01.257Z,92604.66
2022-08-07T13:50:33.729Z,92602.94
2022-08-07T13:54:00.160Z,92602.38
2022-08-07T13:57:14.473Z,92594.00
2022-08-07T14:00:50.436Z,92606.75
2022-08-07T14:04:07.216Z,92606.97
2022-08-07T14:07:30.633Z,92607.22
2022-08-07T14:14:34.888Z,92602.38
2022-08-07T14:18:24.041Z,92564.25
2022-08-07T14:22:02.969Z,92584.53
2022-08-07T14:25:17.983Z,92621.97
2022-08-07T14:28:57.471Z,92602.34
2022-08-07T14:32:16.318Z,92593.81
2022-08-07T14:35:42.992Z,92583.56
2022-08-07T14:38:59.714Z,92615.78
2022-08-07T14:42:22.710Z,92611.75
2022-08-07T14:45:55.150Z,92643.94
2022-08-07T14:49:17.651Z,92642.16
2022-08-07T14:52:34.959Z,92642.72
2022-08-07T14:55:55.649Z,92629.28
2022-08-07T14:59:13.974Z,92623.75
2022-08-07T15:02:34.714Z,92646.78
2022-08-07T15:05:54.952Z,92647.94
2022-08-07T15:09:59.031Z,92640.16
2022-08-07T15:12:42.004Z,92648.28
2022-08-07T15:15:52.806Z,92644.88
2022-08-07T15:19:00.624Z,92635.94
2022-08-07T15:22:10.126Z,92653.09
2022-08-07T15:25:36.653Z,92648.81
2022-08-07T15:28:53.581Z,92657.00
2022-08-07T15:32:04.983Z,92654.28
2022-08-07T15:35:16.789Z,92643.03
2022-08-07T15:45:25.703Z,92668.44
2022-08-07T15:49:03.785Z,92677.13
2022-08-07T15:52:21.897Z,92665.50
2022-08-07T15:55:53.597Z,92664.34
2022-08-07T15:59:16.270Z,92662.66
2022-08-07T16:02:46.917Z,92650.06
2022-08-07T16:05:53.759Z,92662.91
2022-08-07T16:09:10.077Z,92650.47
2022-08-07T16:12:32.716Z,92658.25
2022-08-07T16:15:55.227Z,92673.41
2022-08-07T16:19:42.702Z,92676.69
2022-08-07T16:23:05.551Z,92666.22
2022-08-07T16:26:35.829Z,92666.81
2022-08-07T16:30:11.484Z,92656.50
2022-08-07T16:34:03.322Z,92664.25
2022-08-07T16:37:02.639Z,92649.59
2022-08-07T16:40:34.718Z,92650.38
2022-08-07T16:44:46.260Z,92649.41
2022-08-07T16:47:56.218Z,92651.47
2022-08-07T16:51:54.496Z,92645.91
2022-08-07T16:55:27.853Z,92650.53
2022-08-07T16:59:10.866Z,92641.03
2022-08-07T17:02:51.260Z,92651.53
2022-08-07T17:06:41.140Z,92652.81
2022-08-07T17:10:06.253Z,92641.47
2022-08-07T17:13:23.199Z,92648.47
2022-08-07T17:16:34.479Z,92640.28
2022-08-07T17:20:01.936Z,92646.31
2022-08-07T17:23:32.284Z,92658.09
2022-08-07T17:27:00.649Z,92638.69
2022-08-07T17:30:16.160Z,92630.56
2022-08-07T17:34:09.779Z,92648.63
2022-08-07T17:36:57.634Z,92644.03
2022-08-07T17:40:35.303Z,92637.59
2022-08-07T17:44:02.776Z,92637.75
2022-08-07T17:47:17.033Z,92636.72
2022-08-07T17:50:50.866Z,92642.34
2022-08-07T17:54:29.638Z,92635.31
2022-08-07T17:57:56.235Z,92647.81
2022-08-07T18:01:18.031Z,92650.13
2022-08-07T18:04:35.833Z,92657.72
2022-08-07T18:07:47.453Z,92646.66
2022-08-07T18:12:07.375Z,92648.38
2022-08-07T18:15:08.777Z,92658.97
2022-08-07T18:18:45.312Z,92649.78
2022-08-07T18:21:53.379Z,92639.56
2022-08-07T18:25:24.149Z,92641.13
2022-08-07T18:28:58.732Z,92652.78
2022-08-07T18:32:20.533Z,92642.59
2022-08-07T18:35:32.455Z,92642.69
2022-08-07T18:40:05.152Z,92654.31
2022-08-07T18:42:48.863Z,92648.41
2022-08-07T18:46:33.532Z,92655.53
2022-08-07T18:50:35.236Z,92640.78
2022-08-07T18:53:12.423Z,92642.38
2022-08-07T18:56:41.436Z,92649.84
2022-08-07T19:00:33.201Z,92646.72
2022-08-07T19:03:49.173Z,92651.19
2022-08-07T19:07:34.385Z,92651.38
2022-08-07T19:10:55.906Z,92646.22
2022-08-07T19:14:17.095Z,92645.47
2022-08-07T19:18:03.185Z,92649.63
2022-08-07T19:21:46.549Z,92637.44
2022-08-07T19:24:51.140Z,92662.13
2022-08-07T19:28:57.906Z,92645.63
2022-08-07T19:31:57.804Z,92652.94
2022-08-07T19:35:04.266Z,92653.81
2022-08-07T19:38:16.798Z,92635.75
2022-08-07T19:41:39.053Z,92673.91
2022-08-07T19:44:49.933Z,92668.88
2022-08-07T19:47:56.516Z,92625.38
2022-08-07T19:51:03.927Z,92639.72
2022-08-07T19:54:33.036Z,92663.25
2022-08-07T19:58:12.640Z,92653.75
2022-08-07T20:01:18.855Z,92652.63
2022-08-07T20:04:38.065Z,92635.06
2022-08-07T20:07:50.081Z,92642.72
2022-08-07T20:11:01.886Z,92645.31
2022-08-07T20:14:13.575Z,92647.91
2022-08-07T20:17:27.783Z,92635.13
2022-08-07T20:20:34.138Z,92638.69
2022-08-07T20:23:51.931Z,92637.53
2022-08-07T20:27:03.248Z,92647.16
2022-08-07T20:30:07.810Z,92654.59
2022-08-07T20:33:24.532Z,92655.91
2022-08-07T20:36:44.200Z,92646.25
2022-08-07T20:40:04.393Z,92655.47
2022-08-07T20:43:16.969Z,92643.53
2022-08-07T20:46:42.827Z,92652.88
2022-08-07T20:49:58.114Z,92650.66
2022-08-07T20:53:05.475Z,92646.50
2022-08-07T20:56:11.056Z,92642.56
2022-08-07T21:00:05.285Z,92646.28
2022-08-07T21:02:59.115Z,92637.94
2022-08-07T21:06:21.795Z,92643.72
2022-08-07T21:09:52.515Z,92644.13
2022-08-07T21:13:02.501Z,92652.88
2022-08-07T21:16:09.632Z,92636.94
2022-08-07T21:19:14.721Z,92640.78
2022-08-07T21:22:28.497Z,92644.25
2022-08-07T21:25:56.397Z,92648.72
2022-08-07T21:29:12.956Z,92654.22
2022-08-07T21:32:43.796Z,92654.97
2022-08-07T21:36:04.978Z,92651.47
2022-08-07T21:39:46.757Z,92661.63
2022-08-07T21:43:14.728Z,92655.84
2022-08-07T21:46:24.794Z,92662.03
2022-08-07T21:50:00.920Z,92665.06
2022-08-07T21:53:13.584Z,92665.81
2022-08-07T21:56:37.675Z,92669.34
2022-08-07T22:00:06.287Z,92675.13
2022-08-07T22:03:33.242Z,92673.88
2022-08-07T22:06:50.705Z,92667.13
2022-08-07T22:10:03.369Z,92659.66
2022-08-07T22:13:13.766Z,92658.72
2022-08-07T22:16:42.255Z,92648.69
2022-08-07T22:20:10.646Z,92663.81
2022-08-07T22:23:18.068Z,92653.09
2022-08-07T22:26:38.027Z,92653.09
2022-08-07T22:29:57.537Z,92650.09
2022-08-07T22:33:05.955Z,92651.56
2022-08-07T22:36:46.464Z,92678.97
2022-08-07T22:40:04.885Z,92671.94
2022-08-07T22:43:44.818Z,92679.56
2022-08-07T22:47:26.780Z,92687.00
2022-08-07T22:50:40.535Z,92661.72
2022-08-07T22:54:09.327Z,92684.44
2022-08-07T22:57:27.927Z,92677.94
2022-08-07T23:00:43.833Z,92674.66
2022-08-07T23:04:16.236Z,92681.50
2022-08-07T23:07:42.020Z,92692.28
2022-08-07T23:11:13.236Z,92675.59
2022-08-07T23:14:41.258Z,92674.25
2022-08-07T23:18:04.922Z,92671.38
2022-08-07T23:21:17.466Z,92673.06
2022-08-07T23:24:47.682Z,92683.81
2022-08-07T23:28:20.070Z,92669.69
2022-08-07T23:34:20.272Z,92691.47
2022-08-07T23:35:19.966Z,92690.53
2022-08-07T23:38:43.320Z,92672.97
2022-08-07T23:42:30.646Z,92672.97
2022-08-07T23:46:11.559Z,92656.56
2022-08-07T23:49:50.293Z,92663.09
2022-08-07T23:53:49.643Z,92663.88
2022-08-07T23:57:11.160Z,92653.78
